Time;durP1;ratioP1;P1;durP2;ratioP2;P2;SDS_P1;SDS_P2;PMS_P1;PMS_P2;Temp;Humidity;BMP_temperature;BMP_pressure;BME280_temperature;BME280_humidity;BME280_pressure;Samples;Min_cycle;Max_cycle;Signal;HPM_P1;HPM_P2
2024/04/02 00:01:58;;;;;;;0.83;0.83;;;;;;;;;;5091818;28;20449;-74
2024/04/02 00:04:24;;;;;;;1.37;1.30;;;;;;;;;;5092209;28;20451;-74
2024/04/02 00:06:53;;;;;;;1.60;0.90;;;;;;;;;;5092224;28;20451;-74
2024/04/02 00:09:19;;;;;;;1.07;1.07;;;;;;;;;;5091966;28;20541;-74
2024/04/02 00:11:46;;;;;;;0.67;0.67;;;;;;;;;;5091650;28;20440;-74
2024/04/02 00:14:12;;;;;;;1.40;1.00;;;;;;;;;;5109536;28;20508;-74
2024/04/02 00:16:40;;;;;;;1.10;1.10;;;;;;;;;;5112014;28;20731;-74
2024/04/02 00:19:07;;;;;;;0.80;0.80;;;;;;;;;;5111998;28;20202;-74
2024/04/02 00:21:35;;;;;;;0.80;0.80;;;;;;;;;;5111643;28;20462;-74
2024/04/02 00:24:01;;;;;;;2.78;1.88;;;;;;;;;;5111558;28;20301;-72
2024/04/02 00:26:29;;;;;;;1.23;1.07;;;;;;;;;;5111912;28;20302;-72
2024/04/02 00:28:55;;;;;;;2.20;0.83;;;;;;;;;;5111806;27;20490;-72
2024/04/02 00:31:24;;;;;;;1.45;1.35;;;;;;;;;;5111439;28;20447;-72
2024/04/02 00:33:50;;;;;;;1.40;1.20;;;;;;;;;;5111445;28;20201;-71
2024/04/02 00:36:19;;;;;;;1.10;1.00;;;;;;;;;;5111551;28;20234;-72
2024/04/02 00:38:45;;;;;;;2.50;1.47;;;;;;;;;;5111855;28;20584;-72
2024/04/02 00:41:12;;;;;;;1.40;1.30;;;;;;;;;;5111335;28;20804;-72
2024/04/02 00:43:38;;;;;;;0.88;0.80;;;;;;;;;;5111800;28;20293;-72
2024/04/02 00:46:06;;;;;;;0.90;0.90;;;;;;;;;;5111698;28;20250;-72
2024/04/02 00:48:32;;;;;;;1.20;1.10;;;;;;;;;;5092007;28;20878;-72
2024/04/02 00:50:59;;;;;;;1.52;1.45;;;;;;;;;;5090445;28;20300;-74
2024/04/02 00:53:27;;;;;;;1.23;1.13;;;;;;;;;;5091294;28;20646;-74
2024/04/02 00:55:54;;;;;;;0.90;0.90;;;;;;;;;;5091053;28;20500;-74
2024/04/02 00:58:20;;;;;;;1.30;1.23;;;;;;;;;;5091034;28;20446;-74
2024/04/02 01:00:49;;;;;;;1.50;1.40;;;;;;;;;;5090954;28;20507;-74
2024/04/02 01:03:16;;;;;;;1.50;1.27;;;;;;;;;;5089743;28;20452;-74
2024/04/02 01:05:43;;;;;;;1.10;1.00;;;;;;;;;;5090723;28;20499;-74
2024/04/02 01:08:11;;;;;;;1.60;1.40;;;;;;;;;;5090979;28;20461;-74
2024/04/02 01:10:39;;;;;;;1.07;1.07;;;;;;;;;;5090774;28;20996;-74
2024/04/02 01:13:05;;;;;;;1.40;1.30;;;;;;;;;;5090661;28;20946;-74
2024/04/02 01:15:33;;;;;;;1.10;1.10;;;;;;;;;;5090956;28;20480;-74
2024/04/02 01:17:59;;;;;;;1.33;1.23;;;;;;;;;;5089856;28;20448;-74
2024/04/02 01:20:26;;;;;;;1.20;1.20;;;;;;;;;;5070599;28;20221;-74
2024/04/02 01:22:52;;;;;;;1.40;1.30;;;;;;;;;;5070356;28;20250;-74
2024/04/02 01:25:22;;;;;;;3.37;1.80;;;;;;;;;;5069955;28;20489;-74
2024/04/02 01:27:49;;;;;;;0.97;0.97;;;;;;;;;;5070682;28;20442;-74
2024/04/02 01:30:16;;;;;;;1.63;1.10;;;;;;;;;;5070423;28;20485;-74
2024/04/02 01:32:42;;;;;;;1.43;1.23;;;;;;;;;;5069988;28;20879;-74
2024/04/02 01:35:10;;;;;;;1.07;0.97;;;;;;;;;;5084937;28;20518;-74
2024/04/02 01:37:36;;;;;;;1.20;1.20;;;;;;;;;;5090086;28;20456;-74
2024/04/02 01:40:03;;;;;;;1.40;1.30;;;;;;;;;;5090600;28;20498;-74
2024/04/02 01:42:31;;;;;;;1.10;1.10;;;;;;;;;;5089902;28;20310;-74
2024/04/02 01:44:59;;;;;;;1.43;1.10;;;;;;;;;;5090531;28;20505;-74
2024/04/02 01:47:26;;;;;;;1.33;1.23;;;;;;;;;;5090647;28;20963;-74
2024/04/02 01:49:53;;;;;;;1.07;1.00;;;;;;;;;;5090686;28;20495;-74
2024/04/02 01:52:19;;;;;;;1.00;0.90;;;;;;;;;;5090429;28;20530;-74
2024/04/02 01:54:46;;;;;;;1.47;1.37;;;;;;;;;;5090653;28;20469;-74
2024/04/02 01:57:12;;;;;;;0.90;0.80;;;;;;;;;;5090721;28;20540;-74
2024/04/02 01:59:41;;;;;;;10.50;1.97;;;;;;;;;;5090431;28;20442;-74
2024/04/02 02:02:07;;;;;;;1.47;1.17;;;;;;;;;;5091643;28;20532;-74
2024/04/02 02:04:34;;;;;;;0.77;0.77;;;;;;;;;;5094072;28;20463;-74
2024/04/02 02:07:00;;;;;;;1.87;1.77;;;;;;;;;;5094518;28;20447;-74
2024/04/02 02:09:27;;;;;;;1.10;1.10;;;;;;;;;;5094342;28;20494;-74
2024/04/02 02:11:53;;;;;;;0.83;0.83;;;;;;;;;;5093894;28;20885;-74
2024/04/02 02:14:21;;;;;;;1.00;1.00;;;;;;;;;;5094233;28;20444;-74
2024/04/02 02:16:50;;;;;;;1.30;1.20;;;;;;;;;;5094041;28;20544;-74
2024/04/02 02:19:17;;;;;;;1.27;1.13;;;;;;;;;;5094410;28;20843;-74
2024/04/02 02:21:46;;;;;;;1.27;1.10;;;;;;;;;;5094041;28;20450;-74
2024/04/02 02:24:13;;;;;;;1.00;0.90;;;;;;;;;;5094078;28;20457;-74
2024/04/02 02:26:39;;;;;;;0.83;0.77;;;;;;;;;;5082806;28;20856;-75
2024/04/02 02:29:06;;;;;;;1.07;0.80;;;;;;;;;;5093685;28;20449;-74
2024/04/02 02:31:35;;;;;;;1.37;0.73;;;;;;;;;;5093653;28;20554;-74
2024/04/02 02:34:03;;;;;;;2.67;1.30;;;;;;;;;;5093969;28;20906;-74
2024/04/02 02:36:30;;;;;;;0.70;0.70;;;;;;;;;;5093734;28;20230;-74
2024/04/02 02:38:57;;;;;;;1.10;1.00;;;;;;;;;;5093820;28;20449;-74
2024/04/02 02:41:23;;;;;;;0.90;0.90;;;;;;;;;;5093406;28;20535;-74
2024/04/02 02:43:50;;;;;;;1.27;0.67;;;;;;;;;;5093458;28;20455;-74
2024/04/02 02:46:16;;;;;;;0.67;0.67;;;;;;;;;;5093498;28;20469;-74
2024/04/02 02:48:44;;;;;;;1.20;0.80;;;;;;;;;;5093383;28;20445;-74
2024/04/02 02:51:11;;;;;;;2.00;0.90;;;;;;;;;;5093212;28;20498;-74
2024/04/02 02:53:38;;;;;;;0.90;0.90;;;;;;;;;;5093478;28;20448;-74
2024/04/02 02:56:05;;;;;;;1.00;0.90;;;;;;;;;;5093227;28;20555;-74
2024/04/02 02:58:32;;;;;;;0.80;0.80;;;;;;;;;;5093639;28;20471;-74
2024/04/02 03:00:58;;;;;;;0.93;0.93;;;;;;;;;;5093282;28;20642;-74
2024/04/02 03:03:25;;;;;;;1.95;1.17;;;;;;;;;;5093269;28;20459;-74
2024/04/02 03:05:55;;;;;;;2.20;0.90;;;;;;;;;;5093115;28;20317;-74
2024/04/02 03:08:23;;;;;;;0.80;0.80;;;;;;;;;;5093081;28;20469;-74
2024/04/02 03:10:56;;;;;;;1.07;1.07;;;;;;;;;;5092840;28;20228;-74
2024/04/02 03:13:25;;;;;;;1.73;0.90;;;;;;;;;;5092862;28;20445;-74
2024/04/02 03:15:51;;;;;;;0.70;0.70;;;;;;;;;;5092882;28;21061;-74
2024/04/02 03:18:19;;;;;;;5.30;1.13;;;;;;;;;;5093010;28;20449;-74
2024/04/02 03:20:45;;;;;;;1.17;1.07;;;;;;;;;;5093302;28;20273;-74
2024/04/02 03:23:12;;;;;;;2.90;1.10;;;;;;;;;;5092650;28;20536;-74
2024/04/02 03:25:40;;;;;;;1.53;1.47;;;;;;;;;;5092876;28;20379;-74
2024/04/02 03:28:07;;;;;;;1.00;0.63;;;;;;;;;;5093010;28;20493;-74
2024/04/02 03:30:34;;;;;;;1.20;1.10;;;;;;;;;;5092847;28;20479;-74
2024/04/02 03:33:01;;;;;;;1.17;1.07;;;;;;;;;;5092475;28;20450;-74
2024/04/02 03:35:28;;;;;;;2.25;0.80;;;;;;;;;;5092680;28;20663;-74
2024/04/02 03:37:55;;;;;;;1.47;1.00;;;;;;;;;;5092767;28;20829;-74
2024/04/02 03:40:22;;;;;;;0.73;0.73;;;;;;;;;;5092481;28;20955;-74
2024/04/02 03:42:50;;;;;;;2.27;1.37;;;;;;;;;;5092542;28;20301;-74
2024/04/02 03:45:17;;;;;;;;;;;;;;;;;;5092435;28;20469;-74
2024/04/02 03:47:43;;;;;;;1.20;1.20;;;;;;;;;;5092571;28;20332;-74
2024/04/02 03:50:11;;;;;;;0.80;0.50;;;;;;;;;;5091289;28;20241;-74
2024/04/02 03:52:37;;;;;;;0.63;0.63;;;;;;;;;;5092224;28;20466;-74
2024/04/02 03:55:04;;;;;;;4.30;1.00;;;;;;;;;;5092234;28;20526;-74
2024/04/02 03:57:30;;;;;;;1.13;0.80;;;;;;;;;;5092183;28;20471;-74
2024/04/02 03:59:59;;;;;;;0.70;0.70;;;;;;;;;;5092378;28;20817;-74
2024/04/02 04:02:25;;;;;;;0.67;0.60;;;;;;;;;;5091842;28;20846;-74
2024/04/02 04:04:52;;;;;;;1.60;1.00;;;;;;;;;;5092130;28;20469;-74
2024/04/02 04:07:18;;;;;;;0.70;0.70;;;;;;;;;;5092235;28;20372;-74
2024/04/02 04:09:47;;;;;;;1.20;0.80;;;;;;;;;;5092183;28;20261;-74
2024/04/02 04:12:13;;;;;;;1.17;0.80;;;;;;;;;;5091664;28;20902;-74
2024/04/02 04:14:40;;;;;;;0.90;0.90;;;;;;;;;;5091811;28;20482;-74
2024/04/02 04:17:08;;;;;;;1.00;0.80;;;;;;;;;;5091733;28;20206;-74
2024/04/02 04:19:35;;;;;;;3.13;0.90;;;;;;;;;;5091621;28;21109;-74
2024/04/02 04:22:01;;;;;;;1.25;0.93;;;;;;;;;;5091553;28;20531;-74
2024/04/02 04:24:29;;;;;;;1.23;0.97;;;;;;;;;;5090969;28;20211;-74
2024/04/02 04:26:55;;;;;;;2.70;1.13;;;;;;;;;;5091740;28;20535;-74
2024/04/02 04:29:23;;;;;;;1.70;1.15;;;;;;;;;;5091408;28;20207;-74
2024/04/02 04:31:49;;;;;;;1.65;0.80;;;;;;;;;;5091492;28;20292;-74
2024/04/02 04:34:18;;;;;;;1.07;1.07;;;;;;;;;;5091698;28;20243;-74
2024/04/02 04:36:44;;;;;;;1.07;0.87;;;;;;;;;;5091695;28;20556;-74
2024/04/02 04:39:11;;;;;;;1.65;1.00;;;;;;;;;;5091819;28;20452;-74
2024/04/02 04:41:37;;;;;;;;;;;;;;;;;;5091501;28;20348;-74
2024/04/02 04:44:04;;;;;;;1.50;0.83;;;;;;;;;;5091487;28;20357;-75
2024/04/02 04:46:30;;;;;;;1.33;0.70;;;;;;;;;;5091234;28;20472;-74
2024/04/02 04:48:58;;;;;;;0.90;0.90;;;;;;;;;;5091367;28;20472;-74
2024/04/02 04:51:26;;;;;;;0.90;0.90;;;;;;;;;;5091005;28;20313;-74
2024/04/02 04:53:53;;;;;;;7.27;1.90;;;;;;;;;;5091435;28;20465;-74
2024/04/02 04:56:20;;;;;;;1.67;1.57;;;;;;;;;;5091138;28;20473;-75
2024/04/02 04:58:47;;;;;;;0.87;0.83;;;;;;;;;;5091441;28;20524;-74
2024/04/02 05:01:14;;;;;;;2.87;1.13;;;;;;;;;;5090332;28;20465;-74
2024/04/02 05:03:41;;;;;;;1.10;1.00;;;;;;;;;;5091153;28;20455;-74
2024/04/02 05:06:08;;;;;;;0.83;0.73;;;;;;;;;;5091044;28;20474;-74
2024/04/02 05:08:37;;;;;;;2.80;1.20;;;;;;;;;;5091205;28;20450;-74
2024/04/02 05:11:05;;;;;;;1.90;1.20;;;;;;;;;;5090719;28;20488;-74
2024/04/02 05:13:32;;;;;;;0.70;0.70;;;;;;;;;;5090961;28;20454;-74
2024/04/02 05:15:58;;;;;;;1.13;1.03;;;;;;;;;;5090984;28;20475;-74
2024/04/02 05:18:26;;;;;;;0.63;0.63;;;;;;;;;;5090864;28;20451;-73
2024/04/02 05:20:52;;;;;;;4.00;2.00;;;;;;;;;;5090613;28;20445;-72
2024/04/02 05:23:21;;;;;;;1.10;1.00;;;;;;;;;;5090672;28;20475;-72
2024/04/02 05:25:48;;;;;;;2.07;1.63;;;;;;;;;;5090896;28;20528;-71
2024/04/02 05:28:15;;;;;;;0.90;0.87;;;;;;;;;;5090937;28;20822;-70
2024/04/02 05:30:42;;;;;;;2.80;1.30;;;;;;;;;;5090674;28;20929;-70
2024/04/02 05:33:09;;;;;;;2.30;0.87;;;;;;;;;;5090570;28;20476;-70
2024/04/02 05:35:35;;;;;;;2.10;1.20;;;;;;;;;;5090584;28;20560;-70
2024/04/02 05:38:02;;;;;;;1.23;1.00;;;;;;;;;;5093698;28;20453;-70
2024/04/02 05:40:28;;;;;;;2.03;1.20;;;;;;;;;;5094780;28;20445;-70
2024/04/02 05:42:57;;;;;;;1.13;1.07;;;;;;;;;;5094540;28;20494;-70
2024/04/02 05:45:23;;;;;;;0.70;0.70;;;;;;;;;;5094670;28;20543;-70
2024/04/02 05:47:50;;;;;;;1.30;1.20;;;;;;;;;;5094637;28;20460;-70
2024/04/02 05:50:17;;;;;;;1.80;1.07;;;;;;;;;;5094492;28;20579;-69
2024/04/02 05:52:44;;;;;;;2.07;1.20;;;;;;;;;;5094220;28;20452;-70
2024/04/02 05:55:11;;;;;;;3.47;1.13;;;;;;;;;;5094635;28;20475;-70
2024/04/02 05:57:38;;;;;;;4.47;1.63;;;;;;;;;;5094609;28;20456;-70
2024/04/02 06:00:06;;;;;;;1.30;1.20;;;;;;;;;;5094373;28;20809;-70
2024/04/02 06:02:34;;;;;;;2.57;2.37;;;;;;;;;;5094140;28;20453;-70
2024/04/02 06:05:00;;;;;;;1.63;1.53;;;;;;;;;;5094179;28;20476;-70
2024/04/02 06:07:27;;;;;;;1.58;1.48;;;;;;;;;;5094354;28;20525;-70
2024/04/02 06:09:53;;;;;;;1.77;1.67;;;;;;;;;;5094292;28;20291;-70
2024/04/02 06:12:20;;;;;;;1.77;1.27;;;;;;;;;;5094091;28;20463;-70
2024/04/02 06:14:47;;;;;;;2.13;1.10;;;;;;;;;;5094078;28;20468;-70
2024/04/02 06:17:16;;;;;;;1.33;1.10;;;;;;;;;;5094146;28;20514;-70
2024/04/02 06:19:42;;;;;;;1.27;0.90;;;;;;;;;;5093985;28;20445;-70
2024/04/02 06:22:09;;;;;;;1.83;1.73;;;;;;;;;;5093994;28;20463;-70
2024/04/02 06:24:35;;;;;;;2.83;1.60;;;;;;;;;;5093876;28;20859;-70
2024/04/02 06:27:03;;;;;;;2.60;1.50;;;;;;;;;;5094027;28;20460;-70
2024/04/02 06:29:29;;;;;;;1.57;1.47;;;;;;;;;;5093847;28;20540;-70
2024/04/02 06:31:57;;;;;;;3.17;1.40;;;;;;;;;;5093590;28;20533;-70
2024/04/02 06:34:25;;;;;;;2.30;1.83;;;;;;;;;;5093582;28;20455;-70
2024/04/02 06:36:51;;;;;;;1.73;1.60;;;;;;;;;;5093925;28;20541;-70
2024/04/02 06:39:18;;;;;;;1.40;1.30;;;;;;;;;;5093741;28;20449;-70
2024/04/02 06:41:45;;;;;;;1.47;1.33;;;;;;;;;;5093606;28;20442;-70
2024/04/02 06:44:12;;;;;;;1.60;1.50;;;;;;;;;;5093606;28;20449;-70
2024/04/02 06:46:38;;;;;;;1.63;1.03;;;;;;;;;;5093559;28;20553;-70
2024/04/02 06:49:05;;;;;;;1.90;1.77;;;;;;;;;;5092907;28;20450;-70
2024/04/02 06:51:33;;;;;;;1.47;1.37;;;;;;;;;;5093492;28;20579;-70
2024/04/02 06:54:00;;;;;;;1.40;1.30;;;;;;;;;;5093673;28;21065;-70
2024/04/02 06:56:26;;;;;;;1.50;1.40;;;;;;;;;;5093438;28;20472;-70
2024/04/02 06:58:54;;;;;;;3.23;3.00;;;;;;;;;;5093231;28;20453;-70
2024/04/02 07:01:21;;;;;;;2.00;1.30;;;;;;;;;;5092725;28;20438;-70
2024/04/02 07:03:48;;;;;;;2.10;1.30;;;;;;;;;;5092898;28;20824;-70
2024/04/02 07:06:14;;;;;;;4.80;1.57;;;;;;;;;;5092706;28;20469;-70
2024/04/02 07:08:46;;;;;;;1.77;1.67;;;;;;;;;;5092873;28;20951;-70
2024/04/02 07:11:12;;;;;;;4.70;2.47;;;;;;;;;;5092844;28;20489;-70
2024/04/02 07:13:39;;;;;;;1.70;1.27;;;;;;;;;;5093089;28;20453;-70
2024/04/02 07:16:06;;;;;;;4.40;1.33;;;;;;;;;;5092771;28;20473;-70
2024/04/02 07:18:36;;;;;;;1.33;1.23;;;;;;;;;;5093124;28;20561;-70
2024/04/02 07:21:03;;;;;;;1.67;1.43;;;;;;;;;;5092650;28;20525;-69
2024/04/02 07:23:30;;;;;;;4.43;1.30;;;;;;;;;;5092506;28;20454;-70
2024/04/02 07:25:57;;;;;;;3.40;1.50;;;;;;;;;;5092684;28;20465;-70
2024/04/02 07:28:25;;;;;;;1.93;1.83;;;;;;;;;;5092632;28;20451;-69
2024/04/02 07:30:51;;;;;;;1.50;1.40;;;;;;;;;;5092872;28;21028;-69
2024/04/02 07:33:18;;;;;;;1.17;1.17;;;;;;;;;;5092774;28;20480;-69
2024/04/02 07:35:45;;;;;;;1.80;1.30;;;;;;;;;;5092651;28;20465;-69
2024/04/02 07:38:12;;;;;;;1.47;1.37;;;;;;;;;;5092567;28;20441;-69
2024/04/02 07:40:39;;;;;;;2.40;1.67;;;;;;;;;;5092466;28;20445;-69
2024/04/02 07:43:07;;;;;;;2.97;1.30;;;;;;;;;;5092140;28;20450;-70
2024/04/02 07:45:33;;;;;;;2.57;2.47;;;;;;;;;;5091129;28;20473;-69
2024/04/02 07:48:00;;;;;;;2.40;1.33;;;;;;;;;;5091978;28;20472;-69
2024/04/02 07:50:30;;;;;;;2.80;2.60;;;;;;;;;;5092204;28;20493;-69
2024/04/02 07:52:57;;;;;;;1.90;1.80;;;;;;;;;;5092280;28;20456;-69
2024/04/02 07:55:23;;;;;;;2.17;1.97;;;;;;;;;;5091479;28;20454;-69
2024/04/02 07:57:50;;;;;;;1.03;1.03;;;;;;;;;;5080291;28;20461;-69
2024/04/02 08:00:18;;;;;;;2.33;2.17;;;;;;;;;;5084112;28;20468;-69
2024/04/02 08:02:46;;;;;;;2.77;1.47;;;;;;;;;;5091363;28;20485;-69
2024/04/02 08:05:13;;;;;;;3.70;1.50;;;;;;;;;;5091550;28;20560;-69
2024/04/02 08:07:40;;;;;;;1.40;1.30;;;;;;;;;;5091418;28;20469;-69
2024/04/02 08:10:06;;;;;;;1.30;1.30;;;;;;;;;;5091471;28;20450;-69
2024/04/02 08:12:33;;;;;;;1.73;1.63;;;;;;;;;;5081692;28;20540;-69
2024/04/02 08:15:00;;;;;;;1.57;1.17;;;;;;;;;;5082516;28;21027;-69
2024/04/02 08:17:29;;;;;;;1.37;1.37;;;;;;;;;;5082435;28;20456;-69
2024/04/02 08:19:55;;;;;;;1.50;1.40;;;;;;;;;;5091163;28;21178;-69
2024/04/02 08:22:23;;;;;;;1.23;1.23;;;;;;;;;;5078370;28;20831;-69
2024/04/02 08:24:49;;;;;;;8.53;1.90;;;;;;;;;;5085842;28;20477;-69
2024/04/02 08:27:16;;;;;;;2.50;1.43;;;;;;;;;;5077014;28;20504;-69
2024/04/02 08:29:43;;;;;;;4.93;2.30;;;;;;;;;;5091387;28;20904;-69
2024/04/02 08:32:10;;;;;;;1.33;1.20;;;;;;;;;;5090191;28;20470;-69
2024/04/02 08:34:38;;;;;;;1.50;1.40;;;;;;;;;;5088233;28;20813;-69
2024/04/02 08:37:05;;;;;;;1.13;1.10;;;;;;;;;;5089401;28;20445;-69
2024/04/02 08:39:31;;;;;;;1.20;1.10;;;;;;;;;;5089870;28;21018;-70
2024/04/02 08:42:01;;;;;;;0.97;0.87;;;;;;;;;;5090151;28;20653;-70
2024/04/02 08:44:27;;;;;;;1.67;1.20;;;;;;;;;;5087072;28;20476;-69
2024/04/02 08:46:55;;;;;;;0.83;0.83;;;;;;;;;;5089935;28;20439;-70
2024/04/02 08:49:21;;;;;;;1.03;0.80;;;;;;;;;;5090236;28;20438;-69
2024/04/02 08:51:50;;;;;;;0.70;0.70;;;;;;;;;;5089727;28;20636;-70
2024/04/02 08:54:16;;;;;;;1.03;0.97;;;;;;;;;;5090629;28;20867;-70
2024/04/02 08:56:43;;;;;;;0.80;0.80;;;;;;;;;;5090270;28;20553;-69
2024/04/02 08:59:09;;;;;;;1.50;1.10;;;;;;;;;;5090730;28;20525;-69
2024/04/02 09:01:37;;;;;;;0.70;0.67;;;;;;;;;;5090407;28;20445;-70
2024/04/02 09:04:03;;;;;;;2.50;0.97;;;;;;;;;;5090657;28;20456;-70
2024/04/02 09:06:30;;;;;;;2.37;1.13;;;;;;;;;;5090631;28;20462;-70
2024/04/02 09:08:58;;;;;;;1.30;1.20;;;;;;;;;;5090470;28;21067;-70
2024/04/02 09:11:25;;;;;;;1.03;0.97;;;;;;;;;;5089966;28;20485;-70
2024/04/02 09:13:52;;;;;;;1.03;0.97;;;;;;;;;;5084567;28;20966;-70
2024/04/02 09:16:19;;;;;;;1.97;1.03;;;;;;;;;;5089984;28;21048;-70
2024/04/02 09:18:45;;;;;;;2.93;1.50;;;;;;;;;;5089875;28;20529;-70
2024/04/02 09:21:14;;;;;;;3.30;1.47;;;;;;;;;;5090396;28;20449;-70
2024/04/02 09:23:40;;;;;;;2.00;1.60;;;;;;;;;;5090098;28;20450;-70
2024/04/02 09:26:11;;;;;;;4.17;1.17;;;;;;;;;;5090198;28;20519;-70
2024/04/02 09:28:38;;;;;;;3.40;1.73;;;;;;;;;;5090237;28;20445;-70
2024/04/02 09:31:05;;;;;;;2.20;1.53;;;;;;;;;;5090117;28;20482;-70
2024/04/02 09:33:31;;;;;;;5.40;1.77;;;;;;;;;;5090151;28;20831;-70
2024/04/02 09:36:06;;;;;;;3.00;1.57;;;;;;;;;;5090472;28;20544;-70
2024/04/02 09:38:34;;;;;;;1.70;1.40;;;;;;;;;;5089866;28;20449;-70
2024/04/02 09:41:01;;;;;;;1.57;1.50;;;;;;;;;;5089407;28;20454;-71
2024/04/02 09:43:30;;;;;;;3.07;1.40;;;;;;;;;;5089647;28;20434;-71
2024/04/02 09:45:58;;;;;;;1.30;1.30;;;;;;;;;;5089671;28;20549;-71
2024/04/02 09:48:24;;;;;;;6.83;2.53;;;;;;;;;;5090223;28;20442;-71
2024/04/02 09:50:53;;;;;;;2.03;1.33;;;;;;;;;;5090251;28;21010;-71
2024/04/02 09:53:20;;;;;;;1.97;1.87;;;;;;;;;;5090118;28;20442;-71
2024/04/02 09:55:49;;;;;;;3.93;1.60;;;;;;;;;;5089610;28;20549;-71
2024/04/02 09:58:16;;;;;;;4.93;3.00;;;;;;;;;;5089976;28;20442;-70
2024/04/02 10:00:46;;;;;;;1.10;1.00;;;;;;;;;;5089881;28;20444;-71
2024/04/02 10:03:12;;;;;;;1.63;1.53;;;;;;;;;;5089951;28;20446;-71
2024/04/02 10:05:39;;;;;;;5.43;1.30;;;;;;;;;;5090252;28;20465;-71
2024/04/02 10:08:06;;;;;;;1.37;1.27;;;;;;;;;;5090125;28;20451;-71
2024/04/02 10:10:38;;;;;;;3.63;2.63;;;;;;;;;;5089967;28;20525;-71
2024/04/02 10:13:06;;;;;;;2.50;1.27;;;;;;;;;;5089730;28;20448;-71
2024/04/02 10:15:33;;;;;;;1.50;1.00;;;;;;;;;;5089864;28;20481;-71
2024/04/02 10:18:01;;;;;;;1.93;1.37;;;;;;;;;;5090093;28;20526;-71
2024/04/02 10:20:30;;;;;;;1.97;1.40;;;;;;;;;;5090016;28;20451;-71
2024/04/02 10:22:57;;;;;;;4.00;1.73;;;;;;;;;;5090006;28;20815;-71
2024/04/02 10:25:24;;;;;;;2.60;1.67;;;;;;;;;;5092980;28;20470;-73
2024/04/02 10:27:52;;;;;;;2.97;1.10;;;;;;;;;;5093349;28;20442;-71
2024/04/02 10:30:19;;;;;;;2.57;1.30;;;;;;;;;;5093617;28;20454;-72
2024/04/02 10:32:46;;;;;;;1.20;1.10;;;;;;;;;;5093393;28;20859;-72
2024/04/02 10:35:21;;;;;;;5.17;1.27;;;;;;;;;;5093310;28;20889;-72
2024/04/02 10:37:48;;;;;;;4.83;1.50;;;;;;;;;;5093562;28;20438;-71
2024/04/02 10:40:15;;;;;;;1.30;1.20;;;;;;;;;;5093533;28;20855;-72
2024/04/02 10:42:43;;;;;;;1.00;1.00;;;;;;;;;;5092662;28;20529;-72
2024/04/02 10:45:10;;;;;;;3.10;1.40;;;;;;;;;;5092619;28;20462;-72
2024/04/02 10:47:36;;;;;;;1.87;1.57;;;;;;;;;;5092725;28;20483;-72
2024/04/02 10:50:05;;;;;;;6.03;1.60;;;;;;;;;;5092741;28;20439;-72
2024/04/02 10:52:36;;;;;;;4.37;1.50;;;;;;;;;;5093018;28;20525;-72
2024/04/02 10:55:04;;;;;;;1.63;1.53;;;;;;;;;;5092559;28;20462;-72
2024/04/02 10:57:31;;;;;;;3.23;2.43;;;;;;;;;;5093716;28;20457;-72
2024/04/02 10:59:59;;;;;;;2.33;1.07;;;;;;;;;;5092414;28;20799;-72
2024/04/02 11:02:25;;;;;;;4.97;1.40;;;;;;;;;;5091774;28;20441;-73
2024/04/02 11:04:52;;;;;;;6.37;2.80;;;;;;;;;;5091963;28;20489;-73
2024/04/02 11:07:19;;;;;;;1.57;1.47;;;;;;;;;;5090428;28;20522;-74
2024/04/02 11:09:47;;;;;;;2.47;1.60;;;;;;;;;;5092491;28;20952;-73
2024/04/02 11:12:15;;;;;;;4.43;1.60;;;;;;;;;;5090837;28;21710;-72
2024/04/02 11:14:42;;;;;;;6.33;1.60;;;;;;;;;;5090401;28;20444;-72
2024/04/02 11:17:09;;;;;;;1.60;1.50;;;;;;;;;;5091586;28;20439;-72
2024/04/02 11:19:38;;;;;;;3.40;2.03;;;;;;;;;;5091782;28;21150;-72
2024/04/02 11:25:06;;;;;;;2.73;1.40;;;;;;;;;;5092096;28;20453;-73
2024/04/02 11:27:34;;;;;;;2.83;1.10;;;;;;;;;;5090332;28;20443;-74
2024/04/02 11:30:01;;;;;;;4.40;2.17;;;;;;;;;;5090654;28;20973;-73
2024/04/02 11:32:27;;;;;;;4.60;2.10;;;;;;;;;;5090051;28;20928;-73
2024/04/02 11:34:58;;;;;;;4.73;1.70;;;;;;;;;;5090924;28;20456;-74
2024/04/02 11:37:26;;;;;;;3.70;1.40;;;;;;;;;;5088903;28;20518;-74
2024/04/02 11:39:54;;;;;;;3.33;0.93;;;;;;;;;;5091160;28;20878;-74
2024/04/02 11:42:21;;;;;;;1.13;0.97;;;;;;;;;;5090891;28;21099;-74
2024/04/02 11:44:48;;;;;;;2.10;1.13;;;;;;;;;;5091321;28;20465;-74
2024/04/02 11:47:15;;;;;;;2.60;1.93;;;;;;;;;;5090715;28;20471;-74
2024/04/02 11:49:41;;;;;;;5.30;2.97;;;;;;;;;;5090927;28;20440;-75
2024/04/02 11:52:09;;;;;;;8.47;2.23;;;;;;;;;;5091242;28;21040;-74
2024/04/02 11:54:35;;;;;;;5.70;1.60;;;;;;;;;;5091310;28;20444;-74
2024/04/02 12:00:07;;;;;;;2.17;1.30;;;;;;;;;;5091701;28;20593;-74
2024/04/02 12:02:34;;;;;;;1.17;0.83;;;;;;;;;;5096879;28;20435;-74
2024/04/02 12:05:02;;;;;;;2.33;1.27;;;;;;;;;;5107822;28;21056;-73
2024/04/02 12:07:29;;;;;;;2.03;1.10;;;;;;;;;;5093257;28;20543;-73
2024/04/02 12:09:58;;;;;;;1.77;0.80;;;;;;;;;;5097763;28;20533;-74
2024/04/02 12:12:27;;;;;;;2.10;1.20;;;;;;;;;;5095139;28;20489;-74
2024/04/02 12:14:54;;;;;;;3.97;1.83;;;;;;;;;;5093642;28;20459;-74
2024/04/02 12:17:22;;;;;;;2.47;1.80;;;;;;;;;;5088419;28;20972;-73
2024/04/02 12:19:48;;;;;;;2.57;0.90;;;;;;;;;;5080451;28;21028;-74
2024/04/02 12:22:15;;;;;;;2.30;1.30;;;;;;;;;;5073866;28;20441;-73
2024/04/02 12:24:41;;;;;;;1.70;0.80;;;;;;;;;;5085708;28;20462;-74
2024/04/02 12:27:09;;;;;;;1.57;1.00;;;;;;;;;;5103033;28;20442;-74
2024/04/02 12:29:37;;;;;;;1.27;0.90;;;;;;;;;;5102889;28;20444;-74
2024/04/02 12:32:05;;;;;;;2.37;1.10;;;;;;;;;;5096601;28;20484;-74
2024/04/02 12:34:32;;;;;;;1.90;1.27;;;;;;;;;;5089775;28;20479;-74
2024/04/02 12:37:00;;;;;;;1.50;1.07;;;;;;;;;;5105759;28;20528;-73
2024/04/02 12:39:27;;;;;;;3.13;1.40;;;;;;;;;;5095338;28;20540;-74
2024/04/02 12:41:54;;;;;;;0.67;0.67;;;;;;;;;;5088174;28;20466;-74
2024/04/02 12:44:20;;;;;;;1.97;0.63;;;;;;;;;;5096458;28;20491;-74
2024/04/02 12:46:49;;;;;;;0.87;0.70;;;;;;;;;;5091716;28;20464;-75
2024/04/02 12:49:15;;;;;;;2.20;0.87;;;;;;;;;;5091857;28;20442;-74
2024/04/02 12:51:42;;;;;;;1.93;1.40;;;;;;;;;;5094229;28;20898;-74
2024/04/02 12:54:08;;;;;;;3.07;1.37;;;;;;;;;;5091567;28;21009;-74
2024/04/02 12:56:36;;;;;;;2.23;1.20;;;;;;;;;;5087484;28;21084;-73
2024/04/02 12:59:02;;;;;;;2.03;1.23;;;;;;;;;;5095722;28;20863;-74
2024/04/02 13:01:29;;;;;;;1.87;1.20;;;;;;;;;;5090013;28;20431;-74
2024/04/02 13:03:56;;;;;;;1.27;0.80;;;;;;;;;;5095068;28;20444;-73
2024/04/02 13:06:23;;;;;;;1.77;1.40;;;;;;;;;;5090150;28;20552;-74
2024/04/02 13:08:52;;;;;;;1.70;0.67;;;;;;;;;;5101188;28;20531;-75
2024/04/02 13:11:19;;;;;;;2.90;0.70;;;;;;;;;;5098922;28;20444;-75
2024/04/02 13:13:45;;;;;;;1.23;0.70;;;;;;;;;;5095939;28;20444;-75
2024/04/02 13:16:31;;;;;;;0.90;0.63;;;;;;;;;;5085404;28;20459;-75
2024/04/02 13:19:04;;;;;;;1.60;1.00;;;;;;;;;;5088335;28;20470;-74
2024/04/02 13:21:32;;;;;;;1.87;0.60;;;;;;;;;;5097810;28;20448;-74
2024/04/02 13:23:59;;;;;;;3.13;1.10;;;;;;;;;;5091904;28;20526;-74
2024/04/02 13:26:26;;;;;;;1.90;1.00;;;;;;;;;;5097434;28;20880;-73
2024/04/02 13:28:54;;;;;;;1.50;0.80;;;;;;;;;;5091648;28;20474;-74
2024/04/02 13:31:21;;;;;;;2.10;1.00;;;;;;;;;;5105076;28;20978;-75
2024/04/02 13:33:50;;;;;;;3.27;1.10;;;;;;;;;;5104066;28;20936;-73
2024/04/02 13:36:18;;;;;;;2.93;1.00;;;;;;;;;;5104356;28;20961;-73
2024/04/02 13:38:46;;;;;;;1.70;0.77;;;;;;;;;;5109220;28;20464;-75
2024/04/02 13:41:13;;;;;;;1.50;0.60;;;;;;;;;;5092613;28;20447;-74
2024/04/02 13:43:40;;;;;;;0.50;0.50;;;;;;;;;;5098375;28;20443;-75
2024/04/02 13:46:07;;;;;;;1.10;1.00;;;;;;;;;;5103953;28;20586;-72
2024/04/02 13:48:34;;;;;;;1.13;0.70;;;;;;;;;;5105247;28;20528;-71
2024/04/02 13:51:02;;;;;;;0.87;0.70;;;;;;;;;;5102856;28;20452;-72
2024/04/02 13:53:30;;;;;;;5.47;1.23;;;;;;;;;;5105063;28;20857;-72
2024/04/02 13:55:57;;;;;;;0.63;0.63;;;;;;;;;;5093288;28;20502;-72
2024/04/02 13:58:24;;;;;;;0.70;0.70;;;;;;;;;;5087832;28;20539;-72
2024/04/02 14:00:51;;;;;;;1.97;1.00;;;;;;;;;;5094330;28;20443;-72
2024/04/02 14:03:17;;;;;;;1.80;0.97;;;;;;;;;;5087061;28;20533;-71
2024/04/02 14:05:44;;;;;;;1.03;0.87;;;;;;;;;;5085899;28;20469;-68
2024/04/02 14:08:10;;;;;;;1.47;0.90;;;;;;;;;;5088873;28;20830;-68
2024/04/02 14:10:39;;;;;;;2.47;2.20;;;;;;;;;;5095197;28;20437;-69
2024/04/02 14:13:09;;;;;;;1.70;1.60;;;;;;;;;;5096778;28;20521;-69
2024/04/02 14:15:36;;;;;;;4.10;1.53;;;;;;;;;;5094156;28;20485;-70
2024/04/02 14:18:03;;;;;;;1.60;1.20;;;;;;;;;;5106946;28;20521;-70
2024/04/02 14:20:30;;;;;;;1.83;0.80;;;;;;;;;;5099893;28;20437;-70
2024/04/02 14:22:56;;;;;;;0.93;0.93;;;;;;;;;;5099366;28;20521;-70
2024/04/02 14:25:24;;;;;;;1.07;0.97;;;;;;;;;;5095653;28;20537;-69
2024/04/02 14:27:51;;;;;;;2.87;1.20;;;;;;;;;;5096391;28;20493;-68
2024/04/02 14:30:18;;;;;;;1.53;1.00;;;;;;;;;;5099536;28;20834;-67
2024/04/02 14:32:44;;;;;;;1.07;0.97;;;;;;;;;;5104872;28;20484;-68
2024/04/02 14:35:11;;;;;;;0.67;0.67;;;;;;;;;;5098894;28;20975;-68
2024/04/02 14:37:38;;;;;;;0.90;0.50;;;;;;;;;;5112013;28;20450;-68
2024/04/02 14:40:05;;;;;;;0.80;0.80;;;;;;;;;;5096164;28;20440;-68
2024/04/02 14:42:32;;;;;;;0.80;0.80;;;;;;;;;;5106359;28;20442;-68
2024/04/02 14:45:01;;;;;;;1.67;0.70;;;;;;;;;;5098117;28;21064;-68
2024/04/02 14:47:27;;;;;;;1.20;0.70;;;;;;;;;;5092715;28;20442;-69
2024/04/02 14:49:54;;;;;;;0.93;0.80;;;;;;;;;;5097106;28;20441;-69